Time;durP1;ratioP1;P1;durP2;ratioP2;P2;SDS_P1;SDS_P2;PMS_P1;PMS_P2;Temp;Humidity;BMP_temperature;BMP_pressure;BME280_temperature;BME280_humidity;BME280_pressure;Samples;Min_cycle;Max_cycle;Signal;HPM_P1;HPM_P2
2023/10/03 00:00:32;;;;;;;;;13.75;11.00;;;;;24.87;43.19;100835.63;5061132;28;45431;-66
2023/10/03 00:02:59;;;;;;;;;10.25;9.75;;;;;24.87;42.98;100828.44;5061135;28;45272;-66
2023/10/03 00:05:31;;;;;;;;;11.50;9.75;;;;;24.85;43.34;100842.94;5061086;28;45436;-67
2023/10/03 00:07:58;;;;;;;;;6.50;6.00;;;;;24.86;43.00;100834.78;5059196;28;47438;-66
2023/10/03 00:10:24;;;;;;;;;10.00;8.50;;;;;24.83;43.07;100832.31;5060861;28;45329;-67
2023/10/03 00:12:51;;;;;;;;;11.25;10.75;;;;;24.86;42.87;100826.72;5060382;28;46675;-66
2023/10/03 00:15:23;;;;;;;;;17.50;12.75;;;;;24.85;43.41;100833.03;5051902;28;45592;-66
2023/10/03 00:17:49;;;;;;;;;11.25;10.00;;;;;24.83;43.16;100835.00;5041854;28;46767;-66
2023/10/03 00:20:16;;;;;;;;;8.75;8.75;;;;;24.80;43.13;100838.78;5058329;28;45305;-66
2023/10/03 00:22:42;;;;;;;;;12.50;9.50;;;;;24.80;43.23;100836.09;5055784;28;45293;-66
2023/10/03 00:25:27;;;;;;;;;12.50;7.00;;;;;24.80;43.44;100837.91;5060539;28;45434;-67
2023/10/03 00:27:55;;;;;;;;;10.00;10.00;;;;;24.80;43.71;100841.47;5060397;28;46614;-67
2023/10/03 00:30:25;;;;;;;;;6.50;5.75;;;;;24.78;43.52;100840.72;5059616;28;45182;-67
2023/10/03 00:32:52;;;;;;;;;9.25;8.25;;;;;24.80;43.43;100851.34;5060012;28;45349;-66
2023/10/03 00:35:21;;;;;;;;;13.50;11.75;;;;;24.78;43.59;100845.22;5060241;28;45488;-67
2023/10/03 00:37:48;;;;;;;;;8.25;8.25;;;;;24.77;43.42;100851.56;5050485;28;46313;-67
2023/10/03 00:40:18;;;;;;;;;10.75;9.25;;;;;24.76;43.82;100848.00;5060121;28;45367;-66
2023/10/03 00:42:47;;;;;;;;;10.75;8.25;;;;;24.78;43.58;100845.22;5047773;28;45258;-67
2023/10/03 00:45:21;;;;;;;;;8.25;8.25;;;;;24.75;43.69;100845.44;5060289;28;45421;-68
2023/10/03 00:47:48;;;;;;;;;12.00;10.75;;;;;24.73;43.88;100853.63;5059221;28;46013;-66
2023/10/03 00:50:20;;;;;;;;;8.50;8.00;;;;;24.74;43.62;100857.16;5041903;28;45417;-67
2023/10/03 00:52:56;;;;;;;;;11.25;8.00;;;;;24.69;43.44;100853.94;5060161;28;45319;-67
2023/10/03 00:55:26;;;;;;;;;10.75;10.00;;;;;24.71;44.03;100855.56;5057787;28;45226;-67
2023/10/03 00:58:41;;;;;;;;;10.50;9.75;;;;;24.71;44.19;100866.28;5059786;28;46562;-66
2023/10/03 01:00:53;;;;;;;;;12.75;10.50;;;;;24.71;43.72;100865.44;5048981;28;45309;-67
2023/10/03 01:03:36;;;;;;;;;12.00;10.50;;;;;24.69;44.01;100870.06;5060053;28;45324;-67
2023/10/03 01:06:10;;;;;;;;;11.00;9.25;;;;;24.68;43.72;100877.28;5060091;28;45246;-67
2023/10/03 01:08:38;;;;;;;;;11.00;10.00;;;;;24.66;44.21;100881.88;5028451;28;46267;-67
2023/10/03 01:11:15;;;;;;;;;12.50;9.75;;;;;24.63;43.91;100882.09;5059680;28;45377;-66
2023/10/03 01:13:48;;;;;;;;;13.25;13.00;;;;;24.61;43.76;100882.19;5052718;28;45309;-67
2023/10/03 01:16:32;;;;;;;;;9.00;9.00;;;;;24.63;43.90;100887.47;5059327;28;45387;-67
2023/10/03 01:21:44;;;;;;;;;9.50;8.50;;;;;24.56;44.45;100895.09;5052948;28;45334;-67
2023/10/03 01:24:13;;;;;;;;;8.75;8.75;;;;;24.54;44.44;100890.78;5058888;28;45356;-67
2023/10/03 01:26:39;;;;;;;;;12.50;12.00;;;;;24.52;44.47;100896.28;5041171;28;45669;-67
2023/10/03 01:29:04;;;;;;;;;10.00;9.25;;;;;24.48;44.29;100884.03;5059499;28;45496;-67
2023/10/03 01:31:29;;;;;;;;;12.00;12.00;;;;;24.46;44.20;100894.03;5059905;28;45205;-67
2023/10/03 01:33:55;;;;;;;;;12.00;10.25;;;;;24.46;44.53;100888.66;5059725;28;45233;-67
2023/10/03 01:36:20;;;;;;;;;12.00;9.75;;;;;24.43;44.49;100891.56;5055935;28;45482;-67
2023/10/03 01:38:45;;;;;;;;;10.00;9.25;;;;;24.41;44.80;100898.84;5053399;28;45219;-66
2023/10/03 01:41:12;;;;;;;;;10.75;10.00;;;;;24.40;44.50;100902.50;5059656;28;45199;-67
2023/10/03 01:43:40;;;;;;;;;11.25;11.00;;;;;24.34;44.77;100896.59;5059794;28;45292;-67
2023/10/03 01:46:05;;;;;;;;;9.25;8.00;;;;;24.33;44.24;100891.34;5061406;28;45309;-67
2023/10/03 01:48:33;;;;;;;;;13.50;13.50;;;;;24.36;44.95;100907.22;5044583;28;45396;-66
2023/10/03 01:50:58;;;;;;;;;9.75;9.75;;;;;24.30;44.83;100908.53;5063164;28;45300;-67
2023/10/03 01:53:24;;;;;;;;;11.25;10.00;;;;;24.30;45.10;100915.72;5059252;28;45142;-67
2023/10/03 01:55:49;;;;;;;;;13.50;11.00;;;;;24.27;44.72;100915.94;5063040;28;45328;-67
2023/10/03 01:58:15;;;;;;;;;12.00;12.00;;;;;24.25;45.16;100912.47;5062597;28;45187;-67
2023/10/03 02:00:40;;;;;;;;;14.50;13.00;;;;;24.22;45.06;100904.66;5044935;28;45403;-67
2023/10/03 02:03:12;;;;;;;;;15.00;12.75;;;;;24.20;45.17;100910.13;5061776;28;45309;-66
2023/10/03 02:05:38;;;;;;;;;14.75;13.00;;;;;24.20;45.34;100911.94;5062964;28;45266;-67
2023/10/03 02:08:12;;;;;;;;;15.25;12.00;;;;;24.15;45.57;100914.94;5062330;28;46909;-67
2023/10/03 02:10:38;;;;;;;;;12.50;12.25;;;;;24.14;45.25;100900.66;5044494;28;45278;-66
2023/10/03 02:13:21;;;;;;;;;15.00;14.25;;;;;24.14;45.39;100910.56;5025645;28;45369;-67
2023/10/03 02:15:49;;;;;;;;;16.25;14.75;;;;;24.14;45.69;100918.63;5059442;28;45420;-68
2023/10/03 02:18:18;;;;;;;;;16.00;13.00;;;;;24.12;45.89;100907.13;5062302;28;45336;-67
2023/10/03 02:21:04;;;;;;;;;14.00;13.00;;;;;24.11;45.99;100921.50;5055347;28;45557;-67
2023/10/03 02:23:32;;;;;;;;;16.00;11.50;;;;;24.04;45.81;100915.69;5044245;28;45353;-66
2023/10/03 02:26:07;;;;;;;;;14.50;11.75;;;;;24.06;46.23;100912.91;5044093;28;45338;-67
2023/10/03 02:28:33;;;;;;;;;13.25;11.50;;;;;24.03;45.83;100913.97;5062315;28;46201;-67
2023/10/03 02:31:00;;;;;;;;;14.25;13.50;;;;;24.01;45.99;100916.75;5062110;28;45306;-66
2023/10/03 02:33:28;;;;;;;;;15.00;14.00;;;;;24.01;46.11;100913.19;5062554;28;45186;-66
2023/10/03 02:35:54;;;;;;;;;16.25;15.25;;;;;24.00;46.38;100908.81;5061893;28;45466;-67
2023/10/03 02:38:24;;;;;;;;;15.50;13.75;;;;;24.00;46.33;100912.34;5052481;28;45952;-66
2023/10/03 02:40:59;;;;;;;;;15.75;14.25;;;;;23.99;46.63;100918.69;5043906;28;45523;-66
2023/10/03 02:43:30;;;;;;;;;17.25;14.00;;;;;24.00;46.51;100916.88;5062334;28;45244;-66
2023/10/03 02:45:56;;;;;;;;;18.75;16.50;;;;;23.97;46.38;100912.56;5062314;28;45298;-66
2023/10/03 02:48:22;;;;;;;;;15.50;13.25;;;;;23.96;46.34;100901.94;5061816;28;46234;-66
2023/10/03 02:50:49;;;;;;;;;20.75;15.50;;;;;23.89;46.66;100900.63;5062317;28;45392;-67
2023/10/03 02:53:19;;;;;;;;;17.25;14.00;;;;;23.93;47.01;100905.69;5058227;28;45435;-67
2023/10/03 02:55:45;;;;;;;;;20.50;15.00;;;;;23.93;46.67;100920.94;5061493;28;45364;-67
2023/10/03 02:58:13;;;;;;;;;15.00;13.25;;;;;23.90;47.00;100916.59;5061482;28;46217;-67
2023/10/03 03:00:39;;;;;;;;;17.75;16.50;;;;;23.89;46.75;100920.25;5044020;28;45964;-67
2023/10/03 03:03:06;;;;;;;;;18.25;16.25;;;;;23.89;46.96;100914.03;5061893;28;45523;-67
2023/10/03 03:05:36;;;;;;;;;15.00;14.25;;;;;23.86;47.08;100923.13;5040534;28;45662;-67
2023/10/03 03:11:00;;;;;;;;;15.00;13.25;;;;;23.81;47.57;100920.75;5061617;28;45349;-67
2023/10/03 03:13:27;;;;;;;;;15.25;15.25;;;;;23.81;46.90;100930.63;5025385;28;45392;-66
2023/10/03 03:16:11;;;;;;;;;13.25;12.50;;;;;23.76;47.32;100920.22;5040084;28;45415;-67
2023/10/03 03:18:41;;;;;;;;;14.75;14.75;;;;;23.75;47.42;100934.59;5049688;28;46378;-67
2023/10/03 03:21:15;;;;;;;;;12.50;12.25;;;;;23.76;47.49;100943.47;5054258;28;45324;-67
2023/10/03 03:23:56;;;;;;;;;18.00;13.25;;;;;23.72;47.67;100934.78;5043415;28;45390;-67
2023/10/03 03:26:22;;;;;;;;;15.00;13.00;;;;;23.73;47.39;100932.97;5060588;28;45262;-67
2023/10/03 03:28:51;;;;;;;;;18.50;16.00;;;;;23.69;47.39;100933.16;5052151;28;48157;-67
2023/10/03 03:31:26;;;;;;;;;13.00;12.75;;;;;23.70;47.49;100940.25;5061459;28;45321;-65
2023/10/03 03:34:00;;;;;;;;;11.75;11.75;;;;;23.69;47.72;100943.03;5043320;28;45308;-67
2023/10/03 03:36:34;;;;;;;;;14.75;14.00;;;;;23.64;47.76;100943.34;5043089;28;45317;-65
2023/10/03 03:39:04;;;;;;;;;13.75;13.75;;;;;23.61;47.89;100945.34;5061054;28;45475;-65
2023/10/03 03:41:30;;;;;;;;;14.50;13.75;;;;;23.59;47.81;100944.63;5043049;28;45471;-67
2023/10/03 03:43:55;;;;;;;;;16.50;14.25;;;;;23.56;47.72;100945.69;5061190;28;45249;-67
2023/10/03 03:46:21;;;;;;;;;14.25;13.25;;;;;23.54;47.77;100937.72;5043104;28;46043;-67
2023/10/03 03:48:46;;;;;;;;;18.00;16.25;;;;;23.50;48.06;100930.00;5042819;28;46043;-65
2023/10/03 03:51:14;;;;;;;;;13.75;11.75;;;;;23.50;47.90;100935.34;5061435;28;45195;-67
2023/10/03 03:53:41;;;;;;;;;17.75;16.50;;;;;23.50;48.02;100948.78;5058088;28;45289;-67
2023/10/03 03:56:07;;;;;;;;;15.75;15.50;;;;;23.48;48.02;100950.69;5060871;28;45419;-67
2023/10/03 03:58:40;;;;;;;;;18.00;16.25;;;;;23.44;48.24;100954.53;5060720;28;46895;-67
2023/10/03 04:01:14;;;;;;;;;13.00;12.25;;;;;23.44;48.18;100960.75;5042624;28;45281;-65
2023/10/03 04:03:42;;;;;;;;;12.25;11.00;;;;;23.39;48.44;100957.50;5048153;28;45273;-65
2023/10/03 04:06:08;;;;;;;;;14.00;13.00;;;;;23.33;48.31;100966.81;5042699;28;45751;-65
2023/10/03 04:08:35;;;;;;;;;13.50;11.75;;;;;23.32;48.25;100969.56;5059866;28;45603;-67
2023/10/03 04:11:01;;;;;;;;;19.25;19.00;;;;;23.30;48.56;100964.31;5060791;28;45245;-67
2023/10/03 04:13:26;;;;;;;;;11.25;11.00;;;;;23.27;48.20;100969.88;5055462;28;45543;-65
2023/10/03 04:15:53;;;;;;;;;11.75;11.00;;;;;23.28;48.54;100973.41;5034622;28;45602;-65
2023/10/03 04:18:19;;;;;;;;;16.75;14.00;;;;;23.25;48.52;100974.47;5042009;28;47042;-65
2023/10/03 04:20:46;;;;;;;;;16.00;15.25;;;;;23.23;48.92;100964.81;5038089;28;45383;-65
2023/10/03 04:23:12;;;;;;;;;13.50;12.00;;;;;23.19;48.83;100972.19;5041438;28;45384;-65
2023/10/03 04:25:40;;;;;;;;;11.50;11.50;;;;;23.21;48.92;100991.72;5060342;28;45524;-65
2023/10/03 04:28:08;;;;;;;;;14.25;14.25;;;;;23.15;49.14;100990.28;5060364;28;46329;-65
2023/10/03 04:30:34;;;;;;;;;12.75;12.75;;;;;23.15;48.82;101008.16;5042411;28;46178;-65
2023/10/03 04:32:59;;;;;;;;;14.75;13.75;;;;;23.10;48.91;100996.88;5060417;28;45250;-65
2023/10/03 04:35:25;;;;;;;;;13.75;12.75;;;;;23.08;48.75;101007.69;5060620;28;45416;-65
2023/10/03 04:37:52;;;;;;;;;14.00;12.50;;;;;23.05;49.57;100999.84;5031917;28;47124;-68
2023/10/03 04:40:22;;;;;;;;;8.50;8.25;;;;;23.07;49.00;101010.44;5060175;28;45528;-66
2023/10/03 04:42:49;;;;;;;;;13.00;12.00;;;;;23.03;49.08;101004.41;5047949;28;45308;-66
2023/10/03 04:45:15;;;;;;;;;11.25;10.75;;;;;22.98;49.24;101002.03;5059796;28;45368;-66
2023/10/03 04:47:41;;;;;;;;;11.75;10.75;;;;;22.98;49.16;101007.41;5059846;28;47634;-66
2023/10/03 04:50:08;;;;;;;;;15.00;13.25;;;;;22.96;49.15;101009.31;5060260;28;45381;-66
2023/10/03 04:52:34;;;;;;;;;13.25;12.25;;;;;22.92;49.33;101012.25;5042075;28;45462;-69
2023/10/03 04:54:59;;;;;;;;;11.75;9.50;;;;;22.91;49.47;101037.34;5039145;28;45462;-69
2023/10/03 04:57:27;;;;;;;;;11.00;10.00;;;;;22.87;49.62;101024.13;5041068;28;47781;-69
2023/10/03 04:59:56;;;;;;;;;12.00;9.50;;;;;22.84;49.53;101020.78;5041901;28;46032;-69
2023/10/03 05:02:22;;;;;;;;;13.25;10.25;;;;;22.79;49.91;101023.75;5060040;28;45386;-69
2023/10/03 05:04:48;;;;;;;;;9.25;8.75;;;;;22.80;49.53;101021.94;5058716;28;45601;-69
2023/10/03 05:07:13;;;;;;;;;12.25;10.25;;;;;22.75;49.65;101018.69;5037386;28;49390;-73
2023/10/03 05:09:48;;;;;;;;;9.50;9.50;;;;;22.77;49.59;101027.50;5036729;28;45329;-64
2023/10/03 05:12:13;;;;;;;;;9.00;9.00;;;;;22.70;49.67;101017.16;5059915;28;45394;-65
2023/10/03 05:14:42;;;;;;;;;11.00;10.00;;;;;22.75;49.82;101021.34;5051281;28;45234;-67
2023/10/03 05:17:07;;;;;;;;;10.25;9.00;;;;;22.74;49.75;101028.50;5059638;28;47278;-66
2023/10/03 05:19:33;;;;;;;;;12.00;11.00;;;;;22.72;49.78;101028.59;5059468;28;45292;-68
2023/10/03 05:21:58;;;;;;;;;13.00;12.00;;;;;22.71;49.58;101026.88;5051737;28;45359;-67
2023/10/03 05:24:24;;;;;;;;;13.00;11.25;;;;;22.69;49.73;101039.53;5059701;28;45411;-70
2023/10/03 05:26:51;;;;;;;;;9.00;8.50;;;;;22.69;50.06;101050.25;5059361;28;46613;-70
2023/10/03 05:29:17;;;;;;;;;11.50;9.75;;;;;22.62;50.09;101038.16;5041422;28;45389;-69
2023/10/03 05:31:43;;;;;;;;;9.75;7.00;;;;;22.64;50.11;101048.78;5059516;28;45378;-67
2023/10/03 05:34:09;;;;;;;;;8.75;8.75;;;;;22.62;50.14;101051.56;5058801;28;45699;-65
2023/10/03 05:36:35;;;;;;;;;9.50;8.75;;;;;22.56;50.47;101065.31;5053200;28;47097;-62
2023/10/03 05:39:00;;;;;;;;;11.25;11.00;;;;;22.56;50.56;101059.94;5056349;28;45312;-63
2023/10/03 05:41:26;;;;;;;;;12.50;10.50;;;;;22.53;50.09;101070.84;5058221;28;45808;-67
2023/10/03 05:43:52;;;;;;;;;11.25;9.00;;;;;22.52;50.19;101069.97;5058585;28;45527;-65
2023/10/03 05:46:18;;;;;;;;;12.75;10.50;;;;;22.52;50.27;101078.00;5058098;28;48244;-66
2023/10/03 05:48:43;;;;;;;;;12.25;10.50;;;;;22.48;50.07;101075.63;5059016;28;45235;-67
2023/10/03 05:51:09;;;;;;;;;12.50;10.50;;;;;22.46;50.33;101075.69;5059532;28;45316;-68
2023/10/03 05:53:35;;;;;;;;;11.50;9.25;;;;;22.46;50.27;101072.16;5056119;28;45388;-64
2023/10/03 05:56:01;;;;;;;;;10.50;8.50;;;;;22.43;50.45;101072.34;5058964;28;45336;-64
2023/10/03 05:58:27;;;;;;;;;9.75;9.50;;;;;22.40;50.87;101073.38;5059206;28;45415;-64
2023/10/03 06:00:52;;;;;;;;;7.25;6.25;;;;;22.37;51.02;101089.63;5059499;28;45446;-66
2023/10/03 06:03:17;;;;;;;;;7.50;7.50;;;;;22.35;50.72;101103.09;5059243;28;45475;-66
2023/10/03 06:05:43;;;;;;;;;9.25;8.50;;;;;22.31;51.28;101098.84;5041124;28;46675;-67
2023/10/03 06:08:12;;;;;;;;;7.75;7.50;;;;;22.31;51.09;101087.28;5058395;28;45323;-70
2023/10/03 06:10:41;;;;;;;;;9.75;8.75;;;;;22.25;51.13;101075.13;5059069;28;45318;-67
2023/10/03 06:13:09;;;;;;;;;9.50;8.50;;;;;22.19;51.07;101080.84;5055407;28;45386;-66
2023/10/03 06:15:36;;;;;;;;;9.75;8.00;;;;;22.23;51.16;101095.75;5030646;28;46408;-65
2023/10/03 06:18:02;;;;;;;;;11.00;11.00;;;;;22.16;51.21;101081.88;5040000;28;45395;-65
2023/10/03 06:20:27;;;;;;;;;11.25;9.00;;;;;22.12;51.11;101074.97;5055148;28;45253;-66
2023/10/03 06:22:53;;;;;;;;;10.25;10.00;;;;;22.11;51.39;101083.94;5037537;28;45528;-68
2023/10/03 06:25:19;;;;;;;;;11.50;9.75;;;;;22.10;51.10;101094.72;5058822;28;45855;-68
2023/10/03 06:27:44;;;;;;;;;8.75;8.75;;;;;22.08;51.08;101105.53;5059111;28;45387;-69
2023/10/03 06:30:10;;;;;;;;;10.25;9.25;;;;;22.07;51.38;101103.78;5057749;28;45309;-69
2023/10/03 06:32:35;;;;;;;;;9.75;9.50;;;;;22.04;51.49;101106.66;5042369;28;45490;-69
2023/10/03 06:35:04;;;;;;;;;9.00;9.00;;;;;22.01;51.35;101102.34;5056762;28;46628;-69
2023/10/03 06:37:30;;;;;;;;;10.75;10.00;;;;;22.02;51.52;101101.38;5049311;28;45325;-68
2023/10/03 06:40:06;;;;;;;;;12.75;11.00;;;;;22.01;51.60;101110.38;5043986;28;45439;-70
2023/10/03 06:42:34;;;;;;;;;9.75;9.75;;;;;22.00;51.73;101099.72;5042852;28;45275;-69
2023/10/03 06:44:59;;;;;;;;;12.25;10.50;;;;;21.93;52.07;101091.19;5061710;28;46174;-69
2023/10/03 06:47:25;;;;;;;;;12.25;11.00;;;;;21.94;51.32;101100.06;5061740;28;45385;-67
2023/10/03 06:49:50;;;;;;;;;10.75;10.75;;;;;21.88;52.29;101093.28;5061139;28;45420;-69
2023/10/03 06:52:16;;;;;;;;;12.00;11.25;;;;;21.86;52.29;101095.16;5061994;28;45257;-70
2023/10/03 06:54:42;;;;;;;;;18.25;15.00;;;;;21.86;52.68;101103.19;5058939;28;45332;-69
2023/10/03 06:57:07;;;;;;;;;18.25;15.50;;;;;21.82;52.17;101102.50;5061738;28;45333;-69
2023/10/03 06:59:33;;;;;;;;;14.50;12.75;;;;;21.77;52.56;101106.38;5062196;28;45277;-69
2023/10/03 07:01:59;;;;;;;;;12.50;12.00;;;;;21.75;52.27;101115.34;5061930;28;45401;-69
2023/10/03 07:04:25;;;;;;;;;12.25;10.00;;;;;21.71;53.16;101108.47;5061982;28;46382;-70
2023/10/03 07:06:50;;;;;;;;;12.00;11.00;;;;;21.63;52.63;101104.47;5061695;28;45301;-71
2023/10/03 07:09:17;;;;;;;;;14.50;13.00;;;;;21.59;53.46;101112.66;5061315;28;45200;-71
2023/10/03 07:11:42;;;;;;;;;16.25;14.00;;;;;21.53;53.77;101122.78;5061772;28;45503;-70
2023/10/03 07:14:12;;;;;;;;;15.00;11.50;;;;;21.51;53.31;101130.03;5043288;28;47957;-71
2023/10/03 07:16:38;;;;;;;;;14.25;12.25;;;;;21.47;52.98;101148.06;5040360;28;45969;-70
2023/10/03 07:19:04;;;;;;;;;14.25;11.00;;;;;21.42;53.56;101166.13;5064987;28;45404;-71
2023/10/03 07:21:29;;;;;;;;;12.75;11.75;;;;;21.37;53.36;101166.41;5062879;28;45277;-71
2023/10/03 07:23:56;;;;;;;;;9.50;9.50;;;;;21.34;53.30;101169.22;5052181;28;45586;-71
2023/10/03 07:26:22;;;;;;;;;14.00;12.00;;;;;21.33;53.38;101180.84;5061273;28;45369;-71
2023/10/03 07:28:47;;;;;;;;;13.75;13.75;;;;;21.29;53.99;101173.94;5060436;28;45241;-70
2023/10/03 07:31:13;;;;;;;;;13.00;11.00;;;;;21.24;53.92;101165.31;5042989;28;45531;-70
2023/10/03 07:33:45;;;;;;;;;11.75;11.25;;;;;21.22;53.96;101175.19;5061475;28;45292;-69
2023/10/03 07:36:10;;;;;;;;;15.75;12.25;;;;;21.19;54.19;101173.56;5040268;28;45411;-70
2023/10/03 07:38:36;;;;;;;;;13.50;11.75;;;;;21.16;54.15;101178.22;5053491;28;45217;-70
2023/10/03 07:41:13;;;;;;;;;13.50;12.25;;;;;21.17;53.84;101190.63;5043372;28;45207;-70
2023/10/03 07:43:39;;;;;;;;;12.00;12.00;;;;;21.14;53.61;101186.28;5060034;28;46607;-70
2023/10/03 07:46:05;;;;;;;;;12.50;9.75;;;;;21.14;53.69;101180.09;5061288;28;45344;-71
2023/10/03 07:48:30;;;;;;;;;13.75;11.75;;;;;21.10;53.85;101180.25;5043113;28;45397;-71
2023/10/03 07:50:56;;;;;;;;;12.75;12.00;;;;;21.13;54.07;101181.03;5043342;28;45443;-71
2023/10/03 07:53:24;;;;;;;;;11.50;11.00;;;;;21.11;53.79;101192.66;5056441;28;46420;-71
2023/10/03 07:55:49;;;;;;;;;9.75;9.75;;;;;21.13;53.97;101195.28;5061199;28;45348;-71
2023/10/03 07:58:23;;;;;;;;;11.75;11.25;;;;;21.13;54.59;101213.09;5060698;28;45484;-71
2023/10/03 08:00:52;;;;;;;;;13.25;12.25;;;;;21.11;54.19;101203.34;5043059;28;45392;-70
2023/10/03 08:03:28;;;;;;;;;14.50;13.50;;;;;21.02;54.57;101194.94;5060929;28;46381;-71
2023/10/03 08:05:57;;;;;;;;;12.25;8.75;;;;;21.11;54.82;101213.19;5042813;28;45367;-71
2023/10/03 08:08:22;;;;;;;;;11.25;8.00;;;;;21.10;54.64;101219.47;5060926;28;45401;-71
2023/10/03 08:10:49;;;;;;;;;12.75;8.75;;;;;21.08;54.64;101218.66;5060916;28;45530;-71
2023/10/03 08:13:17;;;;;;;;;9.50;9.00;;;;;21.07;54.21;101220.50;5043074;28;47287;-71
2023/10/03 08:15:42;;;;;;;;;8.50;8.50;;;;;21.09;54.60;101218.63;5060874;28;45187;-71
2023/10/03 08:18:17;;;;;;;;;6.50;6.50;;;;;21.11;54.33;101216.72;5060934;28;45265;-71
2023/10/03 08:20:42;;;;;;;;;10.00;9.75;;;;;21.11;54.82;101223.88;5041737;28;45310;-71
2023/10/03 08:23:09;;;;;;;;;8.50;6.00;;;;;21.10;55.11;101212.31;5060422;28;45558;-71
2023/10/03 08:25:35;;;;;;;;;7.00;6.00;;;;;21.10;55.10;101214.97;5060800;28;45324;-70
2023/10/03 08:28:01;;;;;;;;;8.75;7.75;;;;;21.15;54.56;101236.13;5060737;28;45454;-71
2023/10/03 08:30:29;;;;;;;;;7.00;5.25;;;;;21.14;55.02;101230.88;5042270;28;45463;-71
2023/10/03 08:33:05;;;;;;;;;5.75;5.75;;;;;21.13;55.17;101240.69;5060378;28;45260;-69
2023/10/03 08:35:34;;;;;;;;;7.00;7.00;;;;;21.13;55.20;101240.69;5060496;28;45234;-70
2023/10/03 08:38:06;;;;;;;;;7.00;6.50;;;;;21.16;55.25;101245.03;5046971;28;45633;-69
2023/10/03 08:40:42;;;;;;;;;9.00;7.25;;;;;21.21;55.23;101288.41;5041576;28;45269;-70
2023/10/03 08:43:25;;;;;;;;;5.25;5.00;;;;;21.20;55.33;101314.25;5060382;28;45819;-71
2023/10/03 08:45:55;;;;;;;;;3.67;3.67;;;;;21.18;54.73;101342.00;5042135;28;45246;-72
2023/10/03 08:48:26;;;;;;;;;3.33;2.67;;;;;21.13;54.72;101319.97;5042379;28;45396;-71
2023/10/03 08:50:57;;;;;;;;;3.67;3.00;;;;;21.14;54.05;101324.38;5060397;28;45416;-70
2023/10/03 08:53:27;;;;;;;;;2.33;2.33;;;;;21.10;54.38;101337.88;5054754;28;45384;-71
2023/10/03 08:56:01;;;;;;;;;2.33;2.33;;;;;21.09;54.34;101343.31;5058335;28;45389;-71
2023/10/03 08:58:28;;;;;;;;;1.67;1.67;;;;;21.05;54.39;101344.41;5028831;28;45212;-68
2023/10/03 09:00:59;;;;;;;;;3.00;2.00;;;;;21.04;53.95;101358.69;5057216;28;45264;-72
2023/10/03 09:03:29;;;;;;;;;1.00;1.00;;;;;21.00;53.59;101367.81;5060045;28;46393;-69
2023/10/03 09:05:58;;;;;;;;;5.67;3.00;;;;;20.96;54.03;101368.91;5042450;28;45347;-72
2023/10/03 09:08:25;;;;;;;;;4.00;3.00;;;;;20.90;54.17;101354.88;5060862;28;45336;-69
2023/10/03 09:10:55;;;;;;;;;2.00;2.00;;;;;20.91;53.67;101380.66;5042278;28;45384;-69
2023/10/03 09:13:27;;;;;;;;;3.00;3.00;;;;;20.91;53.42;101395.84;5062501;28;46115;-70
2023/10/03 09:16:00;;;;;;;;;5.00;4.00;;;;;20.69;53.98;101356.75;5059125;28;45300;-68
2023/10/03 09:18:42;;;;;;;;;4.00;4.00;;;;;20.90;53.50;101397.63;5060529;28;45314;-68
2023/10/03 09:21:15;;;;;;;;;4.33;2.33;;;;;20.89;54.08;101400.38;5059490;28;45333;-67
2023/10/03 09:24:14;;;;;;;;;4.00;4.00;;;;;20.92;53.54;101410.94;5060264;28;45506;-73
2023/10/03 09:26:47;;;;;;;;;4.67;3.67;;;;;20.90;53.81;101412.78;5041446;28;45211;-69
2023/10/03 09:29:29;;;;;;;;;5.67;5.00;;;;;20.89;53.26;101421.75;5059884;28;45329;-69
2023/10/03 09:31:59;;;;;;;;;5.33;4.33;;;;;20.90;53.91;101423.47;5059681;28;45417;-68
2023/10/03 09:34:30;;;;;;;;;6.00;4.50;;;;;20.88;53.89;101423.56;5039799;28;47077;-71
2023/10/03 09:37:02;;;;;;;;;5.33;4.00;;;;;20.92;53.78;101433.16;5048989;28;45424;-71
2023/10/03 09:39:30;;;;;;;;;6.75;6.00;;;;;20.92;53.76;101435.81;5056106;28;45269;-71
2023/10/03 09:41:56;;;;;;;;;5.50;5.00;;;;;20.96;53.70;101441.88;5058126;28;45598;-69
2023/10/03 09:44:29;;;;;;;;;7.00;5.00;;;;;20.99;53.69;101444.41;5037844;28;47081;-67
2023/10/03 09:47:00;;;;;;;;;5.00;4.00;;;;;21.01;53.60;101453.22;5050418;28;45384;-68
2023/10/03 09:49:36;;;;;;;;;6.25;5.00;;;;;21.07;53.22;101458.28;5059351;28;45380;-69
2023/10/03 09:52:26;;;;;;;;;5.33;4.00;;;;;21.10;53.84;101454.59;5059086;28;45518;-67
2023/10/03 09:54:59;;;;;;;;;4.00;4.00;;;;;21.18;53.45;101472.94;5050876;28;47300;-67
2023/10/03 09:57:28;;;;;;;;;3.50;3.50;;;;;21.20;53.09;101471.06;5059004;28;45399;-66
2023/10/03 09:59:55;;;;;;;;;4.67;4.00;;;;;21.23;52.77;101473.56;5042029;28;45374;-68
2023/10/03 10:02:31;;;;;;;;;5.67;3.00;;;;;21.29;53.21;101473.28;5057837;28;45477;-70
2023/10/03 10:05:19;;;;;;;;;5.00;2.67;;;;;21.35;52.94;101489.03;5059084;28;46209;-70
2023/10/03 10:08:29;;;;;;;;;4.67;3.67;;;;;21.44;52.97;101503.78;5062224;28;45331;-68
2023/10/03 10:11:09;;;;;;;;;4.00;4.00;;;;;21.49;52.63;101506.22;5062744;28;45369;-66
2023/10/03 10:13:46;;;;;;;;;3.00;3.00;;;;;21.53;53.01;101510.47;5064673;28;45354;-68
2023/10/03 10:16:11;;;;;;;;;3.33;3.33;;;;;21.56;52.51;101500.53;5062583;28;45375;-67
2023/10/03 10:18:43;;;;;;;;;4.67;2.00;;;;;21.66;52.68;101519.69;5062409;28;45376;-67
2023/10/03 10:21:31;;;;;;;;;3.00;1.67;;;;;21.72;52.22;101532.75;5062701;28;45213;-66
2023/10/03 10:24:20;;;;;;;;;5.00;2.00;;;;;21.79;51.87;101540.50;5062528;28;45594;-66
2023/10/03 10:26:59;;;;;;;;;6.00;2.33;;;;;21.83;52.43;101539.38;5061926;28;46024;-66
2023/10/03 10:29:25;;;;;;;;;4.00;3.00;;;;;21.88;52.01;101545.38;5062310;28;45374;-67
2023/10/03 10:31:57;;;;;;;;;5.67;2.00;;;;;21.91;51.83;101556.81;5062559;28;45529;-66
2023/10/03 10:34:46;;;;;;;;;2.33;2.00;;;;;21.96;51.50;101559.25;5062231;28;45355;-66
2023/10/03 10:37:18;;;;;;;;;4.00;3.00;;;;;21.96;51.42;101559.25;5050349;28;46085;-66
2023/10/03 10:39:56;;;;;;;;;3.00;2.00;;;;;21.99;51.84;101559.09;5042993;28;45416;-66
2023/10/03 10:42:25;;;;;;;;;2.00;1.33;;;;;22.00;51.50;101559.94;5062222;28;45316;-66
2023/10/03 10:45:14;;;;;;;;;3.00;3.00;;;;;22.03;51.18;101567.84;5062275;28;45225;-65
2023/10/03 10:47:51;;;;;;;;;3.33;3.00;;;;;22.04;51.10;101572.25;5061849;28;46098;-66
2023/10/03 10:50:29;;;;;;;;;5.67;4.67;;;;;22.13;51.07;101578.97;5060671;28;45482;-66
2023/10/03 10:53:02;;;;;;;;;5.00;4.00;;;;;22.21;50.77;101569.59;5061042;28;45358;-66
2023/10/03 10:55:28;;;;;;;;;4.67;3.00;;;;;22.31;50.84;101586.03;5039236;28;45435;-66
2023/10/03 10:58:17;;;;;;;;;3.00;3.00;;;;;22.42;50.75;101592.72;5061544;28;46045;-66
2023/10/03 11:00:43;;;;;;;;;3.00;3.00;;;;;22.49;50.63;101596.81;5061632;28;45458;-67
2023/10/03 11:03:09;;;;;;;;;3.67;2.00;;;;;22.50;50.70;101580.69;5043406;28;45262;-67
2023/10/03 11:05:43;;;;;;;;;3.67;2.00;;;;;22.68;49.75;101602.97;5043466;28;45452;-66
2023/10/03 11:08:09;;;;;;;;;3.67;3.00;;;;;22.78;50.39;101610.50;5061614;28;45320;-67
2023/10/03 11:10:34;;;;;;;;;3.00;3.00;;;;;22.85;50.07;101606.56;5061441;28;45866;-66
2023/10/03 11:13:03;;;;;;;;;4.00;4.00;;;;;22.98;49.93;101615.72;5044065;28;45356;-66
2023/10/03 11:15:29;;;;;;;;;2.67;2.67;;;;;23.11;49.75;101621.28;5060109;28;45679;-67
2023/10/03 11:17:54;;;;;;;;;2.00;2.00;;;;;23.19;49.72;101624.47;5061248;28;46161;-66
2023/10/03 11:20:20;;;;;;;;;3.50;3.50;;;;;23.28;49.43;101631.16;5061522;28;45300;-65
2023/10/03 11:22:47;;;;;;;;;6.00;3.00;;;;;23.34;49.34;101636.13;5042540;28;45290;-65
2023/10/03 11:25:13;;;;;;;;;5.00;3.00;;;;;23.42;49.36;101634.88;5043299;28;45725;-65
2023/10/03 11:27:39;;;;;;;;;3.00;2.00;;;;;23.45;48.65;101638.25;5061250;28;45256;-65
2023/10/03 11:30:19;;;;;;;;;3.00;3.00;;;;;23.45;48.53;101640.94;5061436;28;45285;-65
2023/10/03 11:32:45;;;;;;;;;4.50;4.50;;;;;23.47;48.40;101640.84;5061195;28;45253;-65